createdAt,value
2017-10-01T00:02:14.499Z,8.53
2017-10-01T00:04:42.068Z,8.60
2017-10-01T00:07:10.423Z,8.77
2017-10-01T00:09:37.996Z,8.33
2017-10-01T00:12:05.532Z,9.40
2017-10-01T00:14:33.169Z,8.30
2017-10-01T00:17:00.980Z,9.30
2017-10-01T00:19:28.870Z,9.20
2017-10-01T00:21:57.346Z,9.43
2017-10-01T00:24:42.765Z,9.13
2017-10-01T00:27:10.605Z,8.73
2017-10-01T00:29:39.578Z,9.43
2017-10-01T00:32:08.084Z,9.00
2017-10-01T00:34:36.541Z,9.93
2017-10-01T00:37:04.255Z,9.43
2017-10-01T00:39:34.838Z,9.60
2017-10-01T00:42:02.430Z,9.93
2017-10-01T00:44:31.094Z,8.83
2017-10-01T00:46:58.691Z,9.47
2017-10-01T00:49:26.411Z,9.13
2017-10-01T00:51:54.287Z,8.87
2017-10-01T00:54:22.796Z,9.50
2017-10-01T00:56:51.601Z,9.57
2017-10-01T00:59:19.674Z,9.60
2017-10-01T01:01:47.337Z,9.37
2017-10-01T01:04:15.194Z,9.60
2017-10-01T01:06:43.262Z,10.93
2017-10-01T01:09:11.043Z,9.60
2017-10-01T01:11:42.879Z,9.23
2017-10-01T01:14:11.694Z,9.47
2017-10-01T01:16:39.358Z,10.10
2017-10-01T01:19:07.002Z,10.10
2017-10-01T01:21:35.451Z,9.17
2017-10-01T01:24:04.030Z,11.43
2017-10-01T01:26:31.723Z,9.60
2017-10-01T01:29:00.198Z,10.47
2017-10-01T01:31:28.666Z,9.90
2017-10-01T01:33:56.352Z,9.07
2017-10-01T01:36:25.239Z,8.83
2017-10-01T01:38:53.718Z,10.90
2017-10-01T01:41:22.127Z,9.40
2017-10-01T01:43:49.898Z,9.53
2017-10-01T01:46:18.380Z,9.00
2017-10-01T01:48:47.068Z,9.57
2017-10-01T01:51:14.893Z,10.60
2017-10-01T01:53:42.672Z,10.03
2017-10-01T01:56:12.413Z,10.10
2017-10-01T01:58:40.257Z,9.30
2017-10-01T02:01:08.967Z,9.93
2017-10-01T02:03:37.322Z,10.43
2017-10-01T02:06:06.019Z,10.80
2017-10-01T02:08:33.861Z,11.07
2017-10-01T02:11:01.769Z,9.30
2017-10-01T02:13:29.740Z,10.87
2017-10-01T02:15:57.456Z,11.57
2017-10-01T02:18:25.272Z,10.90
2017-10-01T02:20:53.008Z,11.70
2017-10-01T02:23:21.780Z,12.57
2017-10-01T02:25:49.874Z,12.00
2017-10-01T02:28:18.712Z,11.73
2017-10-01T02:30:47.027Z,12.23
2017-10-01T02:33:14.834Z,12.40
2017-10-01T02:35:42.786Z,12.23
2017-10-01T02:38:10.878Z,12.80
2017-10-01T02:40:38.847Z,10.83
2017-10-01T02:43:06.920Z,13.60
2017-10-01T02:45:34.996Z,12.97
2017-10-01T02:48:03.010Z,13.77
2017-10-01T02:50:30.723Z,12.80
2017-10-01T02:52:58.495Z,12.80
2017-10-01T02:55:26.224Z,11.37
2017-10-01T02:57:54.942Z,12.60
2017-10-01T03:00:22.811Z,13.20
2017-10-01T03:02:50.785Z,12.03
2017-10-01T03:05:49.988Z,12.00
2017-10-01T03:08:19.176Z,11.53
2017-10-01T03:10:47.103Z,12.33
2017-10-01T03:13:15.118Z,13.90
2017-10-01T03:15:42.965Z,12.23
2017-10-01T03:18:11.581Z,11.70
2017-10-01T03:20:40.347Z,10.80
2017-10-01T03:23:10.698Z,13.20
2017-10-01T03:25:38.410Z,11.83
2017-10-01T03:28:06.636Z,11.63
2017-10-01T03:30:34.711Z,13.03
2017-10-01T03:33:06.549Z,12.60
2017-10-01T03:35:35.257Z,11.53
2017-10-01T03:38:03.817Z,11.17
2017-10-01T03:40:32.607Z,11.77
2017-10-01T03:43:01.626Z,11.90
2017-10-01T03:45:31.700Z,11.10
2017-10-01T03:47:59.788Z,11.83
2017-10-01T03:50:27.548Z,10.03
2017-10-01T03:52:56.544Z,11.47
2017-10-01T03:55:25.141Z,10.10
2017-10-01T03:57:54.670Z,11.43
2017-10-01T04:00:22.553Z,10.63
2017-10-01T04:02:50.269Z,10.10
2017-10-01T04:05:21.204Z,10.53
2017-10-01T04:07:48.860Z,10.73
2017-10-01T04:10:16.569Z,10.40
2017-10-01T04:12:44.145Z,10.40
2017-10-01T04:15:12.151Z,10.00
2017-10-01T04:17:39.823Z,10.20
2017-10-01T04:20:07.631Z,10.10
2017-10-01T04:22:35.236Z,9.90
2017-10-01T04:25:03.165Z,10.70
2017-10-01T04:27:31.910Z,9.57
2017-10-01T04:29:59.666Z,10.00
2017-10-01T04:32:27.346Z,10.70
2017-10-01T04:34:55.961Z,10.13
2017-10-01T04:37:23.698Z,9.10
2017-10-01T04:39:52.167Z,9.87
2017-10-01T04:42:19.830Z,10.27
2017-10-01T04:44:47.403Z,9.20
2017-10-01T04:47:15.794Z,9.43
2017-10-01T04:49:44.281Z,10.17
2017-10-01T04:52:13.038Z,10.67
2017-10-01T04:54:40.703Z,10.03
2017-10-01T04:57:08.296Z,10.40
2017-10-01T04:59:35.851Z,9.63
2017-10-01T05:02:04.241Z,9.17
2017-10-01T05:04:31.890Z,9.37
2017-10-01T05:07:00.245Z,10.00
2017-10-01T05:09:27.816Z,9.47
2017-10-01T05:11:55.400Z,8.60
2017-10-01T05:14:23.743Z,8.10
2017-10-01T05:16:51.300Z,8.23
2017-10-01T05:19:18.866Z,7.47
2017-10-01T05:21:46.435Z,11.30
2017-10-01T05:24:14.011Z,10.07
2017-10-01T05:26:42.314Z,9.07
2017-10-01T05:29:09.887Z,8.00
2017-10-01T05:31:37.518Z,9.13
2017-10-01T05:34:05.867Z,10.17
2017-10-01T05:36:33.428Z,9.27
2017-10-01T05:39:01.013Z,8.10
2017-10-01T05:41:29.371Z,8.07
2017-10-01T05:43:56.982Z,7.00
2017-10-01T05:46:24.596Z,7.63
2017-10-01T05:48:52.148Z,7.70
2017-10-01T05:51:19.690Z,6.90
2017-10-01T05:53:47.270Z,6.27
2017-10-01T05:56:14.945Z,6.90
2017-10-01T05:58:42.490Z,7.63
2017-10-01T06:01:10.894Z,10.50
2017-10-01T06:03:39.259Z,9.10
2017-10-01T06:06:06.816Z,9.77
2017-10-01T06:08:34.351Z,7.70
2017-10-01T06:11:01.954Z,7.23
2017-10-01T06:13:30.270Z,6.93
2017-10-01T06:15:58.503Z,8.23
2017-10-01T06:18:26.087Z,6.90
2017-10-01T06:20:53.739Z,8.87
2017-10-01T06:23:22.152Z,7.60
2017-10-01T06:25:49.752Z,8.53
2017-10-01T06:28:17.579Z,8.17
2017-10-01T06:30:45.190Z,7.13
2017-10-01T06:33:12.808Z,8.10
2017-10-01T06:35:40.399Z,8.20
2017-10-01T06:38:08.100Z,8.80
2017-10-01T06:40:36.554Z,8.13
2017-10-01T06:43:04.114Z,8.87
2017-10-01T06:45:31.911Z,9.27
2017-10-01T06:48:00.351Z,11.10
2017-10-01T06:50:28.050Z,10.00
2017-10-01T06:52:56.668Z,9.53
2017-10-01T06:55:24.827Z,9.73
2017-10-01T06:57:52.574Z,10.20
2017-10-01T07:00:20.967Z,10.60
2017-10-01T07:02:49.741Z,9.27
2017-10-01T07:05:18.131Z,9.50
2017-10-01T07:07:47.235Z,9.77
2017-10-01T07:10:15.654Z,9.43
2017-10-01T07:12:43.317Z,10.30
2017-10-01T07:15:10.914Z,11.03
2017-10-01T07:17:38.592Z,10.47
2017-10-01T07:20:07.208Z,11.70
2017-10-01T07:22:34.974Z,10.33
2017-10-01T07:25:02.621Z,9.73
2017-10-01T07:27:30.416Z,9.90
2017-10-01T07:29:58.020Z,10.20
2017-10-01T07:32:25.562Z,9.83
2017-10-01T07:34:53.142Z,10.57
2017-10-01T07:37:20.670Z,9.10
2017-10-01T07:39:48.210Z,11.70
2017-10-01T07:42:15.743Z,10.30
2017-10-01T07:44:44.047Z,8.90
2017-10-01T07:47:11.574Z,9.40
2017-10-01T07:49:39.932Z,16.00
2017-10-01T07:52:07.476Z,32.00
2017-10-01T07:54:35.016Z,10.70
2017-10-01T07:57:02.555Z,30.47
2017-10-01T07:59:30.121Z,19.50
2017-10-01T08:01:57.687Z,10.63
2017-10-01T08:04:25.223Z,8.73
2017-10-01T08:06:52.796Z,7.80
2017-10-01T08:09:20.323Z,7.83
2017-10-01T08:11:47.891Z,14.10
2017-10-01T08:14:16.191Z,8.03
2017-10-01T08:16:43.750Z,37.40
2017-10-01T08:19:11.282Z,8.17
2017-10-01T08:21:38.859Z,11.17
2017-10-01T08:24:07.156Z,7.93
2017-10-01T08:26:34.699Z,11.03
2017-10-01T08:29:02.999Z,9.43
2017-10-01T08:31:30.531Z,8.10
2017-10-01T08:33:58.822Z,8.50
2017-10-01T08:36:27.115Z,7.40
2017-10-01T08:38:55.325Z,7.53
2017-10-01T08:41:22.874Z,7.90
2017-10-01T08:43:50.403Z,6.83
2017-10-01T08:46:17.934Z,7.60
2017-10-01T08:48:45.490Z,6.90
2017-10-01T08:51:13.018Z,6.57
2017-10-01T08:53:40.570Z,5.40
2017-10-01T08:56:08.110Z,5.40
2017-10-01T08:58:35.670Z,6.37
2017-10-01T09:01:03.199Z,6.23
2017-10-01T09:03:30.738Z,6.30
2017-10-01T09:05:58.279Z,6.60
2017-10-01T09:08:25.811Z,6.60
2017-10-01T09:10:53.340Z,6.20
2017-10-01T09:13:21.641Z,6.37
2017-10-01T09:15:49.167Z,6.07
2017-10-01T09:18:16.769Z,5.67
2017-10-01T09:20:44.332Z,5.90
2017-10-01T09:23:11.870Z,6.60
2017-10-01T09:25:40.190Z,5.83
2017-10-01T09:28:07.723Z,6.53
2017-10-01T09:30:35.274Z,5.97
2017-10-01T09:33:03.569Z,5.73
2017-10-01T09:35:31.098Z,6.13
2017-10-01T09:37:59.393Z,5.33
2017-10-01T09:40:27.682Z,4.93
2017-10-01T09:42:55.211Z,5.03
2017-10-01T09:45:22.734Z,4.93
2017-10-01T09:47:50.263Z,4.30
2017-10-01T09:50:17.791Z,4.73
2017-10-01T09:52:45.345Z,5.00
2017-10-01T09:55:12.866Z,4.90
2017-10-01T09:57:40.423Z,5.60
2017-10-01T10:00:07.950Z,5.00
2017-10-01T10:02:36.266Z,4.77
2017-10-01T10:05:03.816Z,4.10
2017-10-01T10:07:31.397Z,4.40
2017-10-01T10:09:58.926Z,5.30
2017-10-01T10:12:26.456Z,5.10
2017-10-01T10:14:54.749Z,4.23
2017-10-01T10:17:23.038Z,4.83
2017-10-01T10:19:50.562Z,5.47
2017-10-01T10:22:18.095Z,5.17
2017-10-01T10:24:45.647Z,5.33
2017-10-01T10:27:13.170Z,4.63
2017-10-01T10:29:41.502Z,4.77
2017-10-01T10:32:09.036Z,4.83
2017-10-01T10:34:36.587Z,4.37
2017-10-01T10:37:04.119Z,4.27
2017-10-01T10:39:33.478Z,5.23
2017-10-01T10:42:01.007Z,4.90
2017-10-01T10:44:28.559Z,5.40
2017-10-01T10:46:56.086Z,5.50
2017-10-01T10:49:23.639Z,6.07
2017-10-01T10:51:51.183Z,7.10
2017-10-01T10:54:18.737Z,6.33
2017-10-01T10:56:46.273Z,12.53
2017-10-01T10:59:13.838Z,9.33
2017-10-01T11:01:41.366Z,6.87
2017-10-01T11:04:09.719Z,9.87
2017-10-01T11:06:37.250Z,10.20
2017-10-01T11:09:04.782Z,6.70
2017-10-01T11:11:32.333Z,6.93
2017-10-01T11:14:00.627Z,6.83
2017-10-01T11:16:28.182Z,14.60
2017-10-01T11:18:55.714Z,6.27
2017-10-01T11:21:23.273Z,6.37
2017-10-01T11:23:50.803Z,6.10
2017-10-01T11:26:18.406Z,8.33
2017-10-01T11:28:46.698Z,6.40
2017-10-01T11:31:14.262Z,6.13
2017-10-01T11:33:41.873Z,6.77
2017-10-01T11:36:09.427Z,6.80
2017-10-01T11:38:36.954Z,6.93
2017-10-01T11:41:04.474Z,7.00
2017-10-01T11:43:32.031Z,6.23
2017-10-01T11:45:59.562Z,6.30
2017-10-01T11:48:27.119Z,6.17
2017-10-01T11:50:54.646Z,7.27
2017-10-01T11:53:22.173Z,7.13
2017-10-01T11:55:49.699Z,6.33
2017-10-01T11:58:17.264Z,7.40
2017-10-01T12:00:44.854Z,7.33
2017-10-01T12:03:12.386Z,6.80
2017-10-01T12:05:39.918Z,6.80
2017-10-01T12:08:07.490Z,6.70
2017-10-01T12:10:35.010Z,5.50
2017-10-01T12:13:03.342Z,5.90
2017-10-01T12:15:30.887Z,4.90
2017-10-01T12:17:58.417Z,5.10
2017-10-01T12:20:26.711Z,5.30
2017-10-01T12:22:54.234Z,5.03
2017-10-01T12:25:21.769Z,4.20
2017-10-01T12:27:49.303Z,4.67
2017-10-01T12:30:16.836Z,4.37
2017-10-01T12:32:45.123Z,4.63
2017-10-01T12:35:12.651Z,4.60
2017-10-01T12:37:40.193Z,3.70
2017-10-01T12:40:07.726Z,4.87
2017-10-01T12:42:35.259Z,4.97
2017-10-01T12:45:03.598Z,5.23
2017-10-01T12:47:31.139Z,6.10
2017-10-01T12:49:58.666Z,6.33
2017-10-01T12:52:26.190Z,5.30
2017-10-01T12:54:53.719Z,4.93
2017-10-01T12:57:21.246Z,5.63
2017-10-01T12:59:48.767Z,5.87
2017-10-01T13:02:16.299Z,5.90
2017-10-01T13:04:43.828Z,5.50
2017-10-01T13:07:11.363Z,5.47
2017-10-01T13:09:39.662Z,5.17
2017-10-01T13:12:07.195Z,4.30
2017-10-01T13:14:34.721Z,4.20
2017-10-01T13:17:02.278Z,4.77
2017-10-01T13:19:29.811Z,5.00
2017-10-01T13:21:57.344Z,4.83
2017-10-01T13:24:25.639Z,5.17
2017-10-01T13:26:53.174Z,4.83
2017-10-01T13:29:20.702Z,4.40
2017-10-01T13:31:48.230Z,4.03
2017-10-01T13:34:15.759Z,3.60
2017-10-01T13:36:44.063Z,3.80
2017-10-01T13:39:11.616Z,3.80
2017-10-01T13:41:39.151Z,4.20
2017-10-01T13:44:06.706Z,4.30
2017-10-01T13:46:34.234Z,4.87
2017-10-01T13:49:01.807Z,4.60
2017-10-01T13:51:29.334Z,4.20
2017-10-01T13:53:56.862Z,4.27
2017-10-01T13:56:25.156Z,4.20
2017-10-01T13:58:52.683Z,3.90
2017-10-01T14:01:20.210Z,4.37
2017-10-01T14:03:47.749Z,5.20
2017-10-01T14:06:15.298Z,4.80
2017-10-01T14:08:42.836Z,4.80
2017-10-01T14:11:11.167Z,4.10
2017-10-01T14:13:40.210Z,3.90
2017-10-01T14:16:08.582Z,4.10
2017-10-01T14:18:36.886Z,3.93
2017-10-01T14:21:05.207Z,3.80
2017-10-01T14:23:32.726Z,3.20
2017-10-01T14:26:00.334Z,3.20
2017-10-01T14:28:27.858Z,3.30
2017-10-01T14:31:00.983Z,3.40
2017-10-01T14:33:28.516Z,3.93
2017-10-01T14:35:56.042Z,3.33
2017-10-01T14:38:24.334Z,3.60
2017-10-01T14:40:52.663Z,4.10
2017-10-01T14:43:20.197Z,3.37
2017-10-01T14:45:47.737Z,3.40
2017-10-01T14:48:16.041Z,4.00
2017-10-01T14:50:43.571Z,4.07
2017-10-01T14:53:11.886Z,4.30
2017-10-01T14:55:39.409Z,4.30
2017-10-01T14:58:07.734Z,4.40
2017-10-01T15:00:35.259Z,3.63
2017-10-01T15:03:02.788Z,3.90
2017-10-01T15:05:30.322Z,3.40
2017-10-01T15:07:57.846Z,3.80
2017-10-01T15:10:25.371Z,3.60
2017-10-01T15:12:53.667Z,3.57
2017-10-01T15:15:21.983Z,3.27
2017-10-01T15:17:49.501Z,3.60
2017-10-01T15:20:17.815Z,3.80
2017-10-01T15:22:45.341Z,3.00
2017-10-01T15:25:13.674Z,3.10
2017-10-01T15:27:41.390Z,3.90
2017-10-01T15:30:09.182Z,3.60
2017-10-01T15:32:36.711Z,3.40
2017-10-01T15:35:05.002Z,3.70
2017-10-01T15:37:32.526Z,4.37
2017-10-01T15:40:00.055Z,4.47
2017-10-01T15:42:27.578Z,3.80
2017-10-01T15:44:55.098Z,3.67
2017-10-01T15:47:22.647Z,4.03
2017-10-01T15:49:50.180Z,3.50
2017-10-01T15:52:17.947Z,3.57
2017-10-01T15:54:45.503Z,4.27
2017-10-01T15:57:13.062Z,4.40
2017-10-01T15:59:40.609Z,3.87
2017-10-01T16:02:08.174Z,3.90
2017-10-01T16:04:35.719Z,4.17
2017-10-01T16:07:04.016Z,4.37
2017-10-01T16:09:31.548Z,4.10
2017-10-01T16:11:59.849Z,4.83
2017-10-01T16:14:27.404Z,4.83
2017-10-01T16:16:54.931Z,5.00
2017-10-01T16:19:22.496Z,5.53
2017-10-01T16:21:50.035Z,5.33
2017-10-01T16:24:17.587Z,5.73
2017-10-01T16:26:45.136Z,5.10
2017-10-01T16:29:12.691Z,5.70
2017-10-01T16:31:40.218Z,5.13
2017-10-01T16:34:07.782Z,5.07
2017-10-01T16:36:35.467Z,5.50
2017-10-01T16:39:03.008Z,6.07
2017-10-01T16:41:30.550Z,5.90
2017-10-01T16:43:58.855Z,5.40
2017-10-01T16:46:26.447Z,5.30
2017-10-01T16:48:53.994Z,4.63
2017-10-01T16:51:21.557Z,4.40
2017-10-01T16:53:49.095Z,5.30
2017-10-01T16:56:16.720Z,5.00
2017-10-01T16:58:44.270Z,4.70
2017-10-01T17:01:11.864Z,7.37
2017-10-01T17:03:40.183Z,8.10
2017-10-01T17:06:07.746Z,5.73
2017-10-01T17:08:35.329Z,5.87
2017-10-01T17:11:02.915Z,5.90
2017-10-01T17:13:31.725Z,5.20
2017-10-01T17:16:06.120Z,5.10
2017-10-01T17:18:33.848Z,5.00
2017-10-01T17:21:01.584Z,5.50
2017-10-01T17:23:29.300Z,5.13
2017-10-01T17:25:56.842Z,5.97
2017-10-01T17:28:24.783Z,6.30
2017-10-01T17:30:52.390Z,5.40
2017-10-01T17:33:20.050Z,5.00
2017-10-01T17:35:47.829Z,5.10
2017-10-01T17:38:16.607Z,4.50
2017-10-01T17:40:44.179Z,5.30
2017-10-01T17:43:11.761Z,4.53
2017-10-01T17:45:40.203Z,4.57
2017-10-01T17:48:07.983Z,5.50
2017-10-01T17:50:36.080Z,4.97
2017-10-01T17:53:04.660Z,5.13
2017-10-01T17:55:32.260Z,5.47
2017-10-01T17:57:59.986Z,4.67
2017-10-01T18:00:28.601Z,4.90
2017-10-01T18:02:56.295Z,4.17
2017-10-01T18:05:23.974Z,5.13
2017-10-01T18:07:51.567Z,5.40
2017-10-01T18:10:19.982Z,4.30
2017-10-01T18:12:47.634Z,4.80
2017-10-01T18:15:15.302Z,4.40
2017-10-01T18:17:42.895Z,4.53
2017-10-01T18:20:10.521Z,4.90
2017-10-01T18:22:38.415Z,4.67
2017-10-01T18:25:06.332Z,4.63
2017-10-01T18:27:34.948Z,4.33
2017-10-01T18:30:02.811Z,4.20
2017-10-01T18:32:30.689Z,4.70
2017-10-01T18:34:58.342Z,4.57
2017-10-01T18:37:26.286Z,4.70
2017-10-01T18:39:56.744Z,4.53
2017-10-01T18:42:24.711Z,4.33
2017-10-01T18:44:52.988Z,4.67
2017-10-01T18:47:21.164Z,4.30
2017-10-01T18:49:49.134Z,3.97
2017-10-01T18:52:19.303Z,4.60
2017-10-01T18:54:47.308Z,4.47
2017-10-01T18:57:15.810Z,3.87
2017-10-01T18:59:44.190Z,4.20
2017-10-01T19:02:12.979Z,4.33
2017-10-01T19:04:40.499Z,4.63
2017-10-01T19:07:08.071Z,6.10
2017-10-01T19:09:37.704Z,3.90
2017-10-01T19:12:05.477Z,4.20
2017-10-01T19:14:33.228Z,4.20
2017-10-01T19:17:00.982Z,4.50
2017-10-01T19:19:29.603Z,4.80
2017-10-01T19:21:59.220Z,4.40
2017-10-01T19:24:27.019Z,4.50
2017-10-01T19:26:55.304Z,4.53
2017-10-01T19:29:22.918Z,4.53
2017-10-01T19:31:50.949Z,4.70
2017-10-01T19:34:19.432Z,6.10
2017-10-01T19:36:48.147Z,4.23
2017-10-01T19:39:16.111Z,5.00
2017-10-01T19:41:43.986Z,5.20
2017-10-01T19:44:11.999Z,4.87
2017-10-01T19:46:39.820Z,5.00
2017-10-01T19:49:09.299Z,4.63
2017-10-01T19:51:38.205Z,4.67
2017-10-01T19:54:07.313Z,4.40
2017-10-01T19:56:34.961Z,4.57
2017-10-01T19:59:03.054Z,4.60
2017-10-01T20:01:31.217Z,4.60
2017-10-01T20:03:58.828Z,4.30
2017-10-01T20:06:26.612Z,4.57
2017-10-01T20:08:54.370Z,4.60
2017-10-01T20:11:21.978Z,4.83
2017-10-01T20:13:49.740Z,6.20
2017-10-01T20:16:17.701Z,4.63
2017-10-01T20:18:45.318Z,4.70
2017-10-01T20:21:12.890Z,4.60
2017-10-01T20:23:40.446Z,4.30
2017-10-01T20:26:08.095Z,4.43
2017-10-01T20:28:35.680Z,4.63
2017-10-01T20:31:03.356Z,4.20
2017-10-01T20:33:31.839Z,4.77
2017-10-01T20:36:00.306Z,4.60
2017-10-01T20:38:28.009Z,5.50
2017-10-01T20:40:55.574Z,5.10
2017-10-01T20:43:23.314Z,4.70
2017-10-01T20:45:51.810Z,4.63
2017-10-01T20:48:20.375Z,4.30
2017-10-01T20:50:48.701Z,4.50
2017-10-01T20:53:16.439Z,4.50
2017-10-01T20:55:43.989Z,4.70
2017-10-01T20:58:12.767Z,4.00
2017-10-01T21:00:40.404Z,4.03
2017-10-01T21:03:08.027Z,4.70
2017-10-01T21:05:35.670Z,4.60
2017-10-01T21:08:04.052Z,4.73
2017-10-01T21:10:31.623Z,4.20
2017-10-01T21:12:59.213Z,4.20
2017-10-01T21:15:26.909Z,3.97
2017-10-01T21:17:54.474Z,5.00
2017-10-01T21:20:22.125Z,4.87
2017-10-01T21:22:50.005Z,4.57
2017-10-01T21:25:17.746Z,4.17
2017-10-01T21:27:45.484Z,5.67
2017-10-01T21:30:13.245Z,4.30
2017-10-01T21:32:40.995Z,4.50
2017-10-01T21:35:08.650Z,4.37
2017-10-01T21:37:37.155Z,6.00
2017-10-01T21:40:08.469Z,4.60
2017-10-01T21:42:38.216Z,4.97
2017-10-01T21:45:05.851Z,4.83
2017-10-01T21:47:34.167Z,5.40
2017-10-01T21:50:01.736Z,4.67
2017-10-01T21:52:30.050Z,4.93
2017-10-01T21:54:57.579Z,5.10
2017-10-01T21:57:25.143Z,4.90
2017-10-01T21:59:52.674Z,4.83
2017-10-01T22:02:20.222Z,4.50
2017-10-01T22:04:47.776Z,4.10
2017-10-01T22:07:16.067Z,4.37
2017-10-01T22:09:43.603Z,4.60
2017-10-01T22:12:11.903Z,4.23
2017-10-01T22:14:39.443Z,4.33
2017-10-01T22:17:07.759Z,4.20
2017-10-01T22:19:35.299Z,4.43
2017-10-01T22:22:02.857Z,4.30
2017-10-01T22:24:30.394Z,3.83
2017-10-01T22:26:58.687Z,4.10
2017-10-01T22:29:26.982Z,3.97
2017-10-01T22:31:54.514Z,4.03
2017-10-01T22:34:22.098Z,3.73
2017-10-01T22:36:50.403Z,4.43
2017-10-01T22:39:17.942Z,4.00
2017-10-01T22:41:46.306Z,4.00
2017-10-01T22:44:13.883Z,4.37
2017-10-01T22:46:42.178Z,4.73
2017-10-01T22:49:09.800Z,4.03
2017-10-01T22:51:38.385Z,3.90
2017-10-01T22:54:06.582Z,4.40
2017-10-01T22:56:34.928Z,3.50
2017-10-01T22:59:02.503Z,4.00
2017-10-01T23:01:30.059Z,4.20
2017-10-01T23:03:57.686Z,4.07
2017-10-01T23:06:25.230Z,4.07
2017-10-01T23:08:52.812Z,5.10
2017-10-01T23:11:20.354Z,3.77
2017-10-01T23:13:47.923Z,4.10
2017-10-01T23:16:15.484Z,4.10
2017-10-01T23:18:43.027Z,4.80
2017-10-01T23:21:10.562Z,3.83
2017-10-01T23:23:38.093Z,4.17
2017-10-01T23:26:05.630Z,4.23
2017-10-01T23:28:33.174Z,4.27
2017-10-01T23:31:00.736Z,4.20
2017-10-01T23:33:28.344Z,4.30
2017-10-01T23:35:56.669Z,3.73
2017-10-01T23:38:24.463Z,4.10
2017-10-01T23:40:52.013Z,4.47
2017-10-01T23:43:19.586Z,3.83
2017-10-01T23:45:47.112Z,4.10
2017-10-01T23:48:14.705Z,3.83
2017-10-01T23:50:42.237Z,5.13
2017-10-01T23:53:09.778Z,4.50
2017-10-01T23:55:37.309Z,4.17
2017-10-01T23:58:05.675Z,4.60
